Terminal Aerodrome Forecast
Issued by NWS Jackson, KY

Home | Current Version | Previous Version | Text Only | Print | Product List | Glossary On
Versions: 1 2 3 4 5 6 7 8 9 10 11 12 13
484
FTUS43 KJKL 242338
TAFLOZ
TAF
KLOZ 242338Z 2500/2524 20005KT P6SM SCT100 BKN250
     FM251600 18010G19KT P6SM SCT100 BKN250
     FM252300 17007KT P6SM SCT100 BKN250=

USA.gov is the U.S. government's official web portal to all federal, state and local government web resources and services.